Terminal Aerodrome Forecast
Issued by NWS

Home | Current Version | Previous Version | Text Only | Print | Product List | Glossary On
Versions: 1 2 3 4 5 6 7 8 9 10 11 12 13 14 15 16 17 18 19 20 21 22 23 24 25
000
FTUS45 KABQ 282300
TAFSAF
TAF
KSAF 282320Z 0100/0124 16010KT P6SM VCSH SCT028 OVC045
      TEMPO 0100/0104 3SM -SN BR OVC018
     FM010400 17008KT 5SM -SHSN BR OVC020
     FM011000 VRB05KT 1SM -SHSN BR OVC006=

USA.gov is the U.S. government's official web portal to all federal, state and local government web resources and services.